createdAt,value
2023-04-18T00:01:40.279Z,13.66
2023-04-18T00:04:46.553Z,13.59
2023-04-18T00:07:50.041Z,13.60
2023-04-18T00:10:52.599Z,13.49
2023-04-18T00:13:55.173Z,13.54
2023-04-18T00:16:57.784Z,13.61
2023-04-18T00:20:07.228Z,13.60
2023-04-18T00:23:14.201Z,13.58
2023-04-18T00:26:17.640Z,13.62
2023-04-18T00:29:24.203Z,13.60
2023-04-18T00:32:29.011Z,13.58
2023-04-18T00:35:32.151Z,13.57
2023-04-18T00:38:35.832Z,13.67
2023-04-18T00:41:38.587Z,13.68
2023-04-18T00:44:41.186Z,13.76
2023-04-18T00:47:45.460Z,13.83
2023-04-18T00:50:48.074Z,13.84
2023-04-18T00:53:51.393Z,13.86
2023-04-18T00:56:54.205Z,13.92
2023-04-18T00:59:56.903Z,13.89
2023-04-18T01:03:01.084Z,13.86
2023-04-18T01:06:04.071Z,13.86
2023-04-18T01:09:09.429Z,13.76
2023-04-18T01:12:12.064Z,13.77
2023-04-18T01:15:14.727Z,13.76
2023-04-18T01:18:19.166Z,13.75
2023-04-18T01:21:22.294Z,13.80
2023-04-18T01:24:26.908Z,13.63
2023-04-18T01:27:29.575Z,13.63
2023-04-18T01:30:33.743Z,13.60
2023-04-18T01:33:36.450Z,13.56
2023-04-18T01:36:39.170Z,13.54
2023-04-18T01:39:42.074Z,13.55
2023-04-18T01:42:46.185Z,13.57
2023-04-18T01:45:48.868Z,13.60
2023-04-18T01:48:51.589Z,13.51
2023-04-18T01:51:57.186Z,13.47
2023-04-18T01:55:02.175Z,13.56
2023-04-18T01:58:04.829Z,13.60
2023-04-18T02:01:08.845Z,13.55
2023-04-18T02:04:11.811Z,13.71
2023-04-18T02:07:14.668Z,13.75
2023-04-18T02:10:18.360Z,13.62
2023-04-18T02:13:21.031Z,13.54
2023-04-18T02:16:23.727Z,13.60
2023-04-18T02:19:26.483Z,13.57
2023-04-18T02:22:29.189Z,13.66
2023-04-18T02:25:33.036Z,13.70
2023-04-18T02:28:38.928Z,13.79
2023-04-18T02:31:42.497Z,13.56
2023-04-18T02:34:45.336Z,13.48
2023-04-18T02:37:48.094Z,13.60
2023-04-18T02:40:51.071Z,13.57
2023-04-18T02:43:55.290Z,13.62
2023-04-18T02:46:58.802Z,13.70
2023-04-18T02:50:01.661Z,13.72
2023-04-18T02:53:04.601Z,13.64
2023-04-18T02:56:24.399Z,13.68
2023-04-18T02:59:46.869Z,13.69
2023-04-18T03:02:50.700Z,13.72
2023-04-18T03:06:04.482Z,13.77
2023-04-18T03:09:09.021Z,13.76
2023-04-18T03:12:16.220Z,13.82
2023-04-18T03:15:19.755Z,13.82
2023-04-18T03:18:24.265Z,13.69
2023-04-18T03:21:31.470Z,13.78
2023-04-18T03:24:34.730Z,13.72
2023-04-18T03:27:40.557Z,13.66
2023-04-18T03:30:44.326Z,13.64
2023-04-18T03:33:51.705Z,13.63
2023-04-18T03:36:54.854Z,13.66
2023-04-18T03:39:57.690Z,13.58
2023-04-18T03:43:03.193Z,13.56
2023-04-18T03:46:06.131Z,13.59
2023-04-18T03:49:09.492Z,13.58
2023-04-18T03:52:14.329Z,13.55
2023-04-18T03:55:19.706Z,13.47
2023-04-18T03:58:23.844Z,13.55
2023-04-18T04:01:28.976Z,13.55
2023-04-18T04:04:31.689Z,13.53
2023-04-18T04:07:35.418Z,13.35
2023-04-18T04:10:38.625Z,13.27
2023-04-18T04:13:41.358Z,13.21
2023-04-18T04:16:46.044Z,13.06
2023-04-18T04:19:52.384Z,13.11
2023-04-18T04:22:58.998Z,13.16
2023-04-18T04:26:03.380Z,13.08
2023-04-18T04:29:25.057Z,13.14
2023-04-18T04:32:29.428Z,13.12
2023-04-18T04:35:32.301Z,13.03
2023-04-18T04:38:38.482Z,13.03
2023-04-18T04:41:43.196Z,13.09
2023-04-18T04:44:47.337Z,13.14
2023-04-18T04:47:51.160Z,13.15
2023-04-18T04:50:57.529Z,12.97
2023-04-18T04:54:01.845Z,13.14
2023-04-18T04:57:05.528Z,13.14
2023-04-18T05:00:09.068Z,13.22
2023-04-18T05:03:12.531Z,13.18
2023-04-18T05:06:20.659Z,13.21
2023-04-18T05:09:23.928Z,13.22
2023-04-18T05:12:26.892Z,13.29
2023-04-18T05:15:33.499Z,13.33
2023-04-18T05:18:39.943Z,13.41
2023-04-18T05:21:45.639Z,13.49
2023-04-18T05:24:51.470Z,13.46
2023-04-18T05:27:54.312Z,13.50
2023-04-18T05:31:13.993Z,13.51
2023-04-18T05:34:16.883Z,13.52
2023-04-18T05:37:19.573Z,13.63
2023-04-18T05:40:22.203Z,13.73
2023-04-18T05:43:25.180Z,13.83
2023-04-18T05:46:27.910Z,13.75
2023-04-18T05:49:31.618Z,13.95
2023-04-18T05:52:38.916Z,14.15
2023-04-18T05:55:41.897Z,14.10
2023-04-18T05:58:45.841Z,14.19
2023-04-18T06:01:49.582Z,14.15
2023-04-18T06:04:53.697Z,14.18
2023-04-18T06:07:57.737Z,14.36
2023-04-18T06:11:03.422Z,14.14
2023-04-18T06:14:06.269Z,14.30
2023-04-18T06:17:10.204Z,14.38
2023-04-18T06:20:13.053Z,14.57
2023-04-18T06:23:16.136Z,14.46
2023-04-18T06:26:18.930Z,14.41
2023-04-18T06:29:23.236Z,14.65
2023-04-18T06:32:26.901Z,14.50
2023-04-18T06:35:32.347Z,14.46
2023-04-18T06:38:35.496Z,14.56
2023-04-18T06:41:38.547Z,14.63
2023-04-18T06:44:43.325Z,14.64
2023-04-18T06:47:47.815Z,14.69
2023-04-18T06:50:50.887Z,15.02
2023-04-18T06:53:54.432Z,15.27
2023-04-18T06:56:57.473Z,15.18
2023-04-18T07:00:07.892Z,14.87
2023-04-18T07:03:18.188Z,15.59
2023-04-18T07:06:21.530Z,15.76
2023-04-18T07:09:24.510Z,15.82
2023-04-18T07:12:32.417Z,15.77
2023-04-18T07:15:43.281Z,15.81
2023-04-18T07:19:04.612Z,15.93
2023-04-18T07:22:11.872Z,16.03
2023-04-18T07:25:14.613Z,16.07
2023-04-18T07:28:17.363Z,15.98
2023-04-18T07:31:20.430Z,15.86
2023-04-18T07:34:23.495Z,16.07
2023-04-18T07:37:26.758Z,16.00
2023-04-18T07:40:29.565Z,15.97
2023-04-18T07:43:32.578Z,15.77
2023-04-18T07:46:50.317Z,15.82
2023-04-18T07:50:17.575Z,15.80
2023-04-18T07:53:38.394Z,15.66
2023-04-18T07:56:48.025Z,15.74
2023-04-18T08:00:03.662Z,15.52
2023-04-18T08:03:18.062Z,15.69
2023-04-18T08:06:37.685Z,15.66
2023-04-18T08:09:44.900Z,15.94
2023-04-18T08:12:48.995Z,16.09
2023-04-18T08:15:51.855Z,16.07
2023-04-18T08:19:01.197Z,16.49
2023-04-18T08:22:10.719Z,16.46
2023-04-18T08:25:14.428Z,16.37
2023-04-18T08:28:17.977Z,16.41
2023-04-18T08:31:20.926Z,16.76
2023-04-18T08:34:24.369Z,16.18
2023-04-18T08:37:28.125Z,17.00
2023-04-18T08:40:31.087Z,17.17
2023-04-18T08:43:34.700Z,17.19
2023-04-18T08:46:37.789Z,17.01
2023-04-18T08:49:42.813Z,17.35
2023-04-18T08:52:50.203Z,17.42
2023-04-18T08:55:57.432Z,17.35
2023-04-18T08:59:00.577Z,17.46
2023-04-18T09:02:10.497Z,17.68
2023-04-18T09:05:16.691Z,17.89
2023-04-18T09:08:24.559Z,17.76
2023-04-18T09:11:32.709Z,17.61
2023-04-18T09:14:49.739Z,17.57
2023-04-18T09:17:58.190Z,17.69
2023-04-18T09:21:19.819Z,17.59
2023-04-18T09:24:30.482Z,17.51
2023-04-18T09:27:53.757Z,17.80
2023-04-18T09:31:14.775Z,17.79
2023-04-18T09:34:54.091Z,17.85
2023-04-18T09:38:13.785Z,17.30
2023-04-18T09:41:21.190Z,17.96
2023-04-18T09:45:27.960Z,18.31
2023-04-18T09:48:38.033Z,18.47
2023-04-18T09:51:45.899Z,18.69
2023-04-18T09:55:07.068Z,18.51
2023-04-18T09:58:16.002Z,18.51
2023-04-18T10:01:19.570Z,18.84
2023-04-18T10:04:22.742Z,18.66
2023-04-18T10:07:27.520Z,18.62
2023-04-18T10:10:32.372Z,19.29
2023-04-18T10:13:48.480Z,19.62
2023-04-18T10:16:51.905Z,19.73
2023-04-18T10:20:08.129Z,19.76
2023-04-18T10:23:36.213Z,19.87
2023-04-18T10:26:50.368Z,20.10
2023-04-18T10:29:54.225Z,20.16
2023-04-18T10:32:56.947Z,20.30
2023-04-18T10:36:09.047Z,20.52
2023-04-18T10:39:22.613Z,20.67
2023-04-18T10:42:52.126Z,21.12
2023-04-18T10:46:23.924Z,21.27
2023-04-18T10:49:36.055Z,20.59
2023-04-18T10:52:39.535Z,20.85
2023-04-18T10:55:53.736Z,20.50
2023-04-18T10:59:01.496Z,20.82
2023-04-18T11:02:12.980Z,20.61
2023-04-18T11:05:21.999Z,20.88
2023-04-18T11:08:30.520Z,20.66
2023-04-18T11:11:34.344Z,20.61
2023-04-18T11:14:57.693Z,21.24
2023-04-18T11:18:06.274Z,21.55
2023-04-18T11:21:09.443Z,21.33
2023-04-18T11:24:21.710Z,20.76
2023-04-18T11:27:26.292Z,21.15
2023-04-18T11:30:41.098Z,21.20
2023-04-18T11:33:47.998Z,20.77
2023-04-18T11:36:51.461Z,20.66
2023-04-18T11:39:54.243Z,20.30
2023-04-18T11:43:01.517Z,19.73
2023-04-18T11:46:04.256Z,19.53
2023-04-18T11:49:07.156Z,19.26
2023-04-18T11:52:16.048Z,19.33
2023-04-18T11:56:36.830Z,19.49
2023-04-18T12:00:10.203Z,19.76
2023-04-18T12:03:20.522Z,20.34
2023-04-18T12:06:26.829Z,20.46
2023-04-18T12:09:30.111Z,20.93
2023-04-18T12:12:33.450Z,21.69
2023-04-18T12:15:42.857Z,21.39
2023-04-18T12:19:11.182Z,22.19
2023-04-18T12:22:50.807Z,22.16
2023-04-18T12:26:00.700Z,21.16
2023-04-18T12:29:03.677Z,21.07
2023-04-18T12:32:07.822Z,20.49
2023-04-18T12:35:10.832Z,20.43
2023-04-18T12:38:13.570Z,19.83
2023-04-18T12:41:16.925Z,20.20
2023-04-18T12:44:19.829Z,20.06
2023-04-18T12:47:32.655Z,20.16
2023-04-18T12:50:39.213Z,19.68
2023-04-18T12:54:06.566Z,19.70
2023-04-18T12:57:29.974Z,19.98
2023-04-18T13:00:34.753Z,21.38
2023-04-18T13:03:53.423Z,23.28
2023-04-18T13:07:02.727Z,25.17
2023-04-18T13:10:05.760Z,26.84
2023-04-18T13:13:09.518Z,26.67
2023-04-18T13:16:13.035Z,28.33
2023-04-18T13:19:15.829Z,28.68
2023-04-18T13:22:21.949Z,27.36
2023-04-18T13:25:26.010Z,27.31
2023-04-18T13:28:30.360Z,27.28
2023-04-18T13:31:33.041Z,25.18
2023-04-18T13:34:42.711Z,23.57
2023-04-18T13:37:46.257Z,25.44
2023-04-18T13:40:55.811Z,25.84
2023-04-18T13:44:08.266Z,27.26
2023-04-18T13:47:17.801Z,26.78
2023-04-18T13:50:23.623Z,27.27
2023-04-18T13:53:27.228Z,28.16
2023-04-18T13:56:31.010Z,28.57
2023-04-18T13:59:33.562Z,27.89
2023-04-18T14:02:36.519Z,26.70
2023-04-18T14:05:40.116Z,26.99
2023-04-18T14:08:42.851Z,25.93
2023-04-18T14:11:45.821Z,27.52
2023-04-18T14:14:51.134Z,26.79
2023-04-18T14:17:54.587Z,28.14
2023-04-18T14:20:57.280Z,29.77
2023-04-18T14:24:10.139Z,29.51
2023-04-18T14:27:12.782Z,30.93
2023-04-18T14:30:15.643Z,30.95
2023-04-18T14:33:18.420Z,30.86
2023-04-18T14:36:21.505Z,31.07
2023-04-18T14:39:25.186Z,30.74
2023-04-18T14:42:27.765Z,31.29
2023-04-18T14:45:34.229Z,30.12
2023-04-18T14:48:37.712Z,30.65
2023-04-18T14:51:42.257Z,30.78
2023-04-18T14:54:45.166Z,30.40
2023-04-18T14:57:47.904Z,27.72
2023-04-18T15:00:55.140Z,27.68
2023-04-18T15:04:00.360Z,26.94
2023-04-18T15:07:04.078Z,25.42
2023-04-18T15:10:08.588Z,24.09
2023-04-18T15:13:11.640Z,25.69
2023-04-18T15:16:14.244Z,25.93
2023-04-18T15:19:17.030Z,27.03
2023-04-18T15:22:19.606Z,26.93
2023-04-18T15:25:23.548Z,26.55
2023-04-18T15:28:26.116Z,26.80
2023-04-18T15:31:28.688Z,26.47
2023-04-18T15:34:31.488Z,24.91
2023-04-18T15:37:34.995Z,23.96
2023-04-18T15:40:38.181Z,22.96
2023-04-18T15:43:42.402Z,22.52
2023-04-18T15:46:45.016Z,22.16
2023-04-18T15:49:47.977Z,21.56
2023-04-18T15:52:51.884Z,21.27
2023-04-18T15:55:55.540Z,20.99
2023-04-18T15:59:00.118Z,20.71
2023-04-18T16:02:03.278Z,20.94
2023-04-18T16:05:07.563Z,20.49
2023-04-18T16:08:10.514Z,20.80
2023-04-18T16:11:13.150Z,20.78
2023-04-18T16:14:16.319Z,20.35
2023-04-18T16:17:25.138Z,20.76
2023-04-18T16:20:28.680Z,20.81
2023-04-18T16:23:32.599Z,20.60
2023-04-18T16:26:35.246Z,20.36
2023-04-18T16:29:37.739Z,20.40
2023-04-18T16:32:40.403Z,19.96
2023-04-18T16:35:43.671Z,20.24
2023-04-18T16:38:46.383Z,20.52
2023-04-18T16:41:48.852Z,20.52
2023-04-18T16:44:52.727Z,20.15
2023-04-18T16:47:57.245Z,19.79
2023-04-18T16:50:59.965Z,19.63
2023-04-18T16:54:04.753Z,19.39
2023-04-18T16:57:08.250Z,19.40
2023-04-18T17:00:17.600Z,19.10
2023-04-18T17:03:23.645Z,19.06
2023-04-18T17:06:27.252Z,19.12
2023-04-18T17:09:30.440Z,19.01
2023-04-18T17:12:33.688Z,18.97
2023-04-18T17:15:37.064Z,19.13
2023-04-18T17:18:41.665Z,19.03
2023-04-18T17:21:45.556Z,18.94
2023-04-18T17:24:48.762Z,19.12
2023-04-18T17:27:51.300Z,19.16
2023-04-18T17:30:53.919Z,19.00
2023-04-18T17:33:56.928Z,18.99
2023-04-18T17:37:00.282Z,18.97
2023-04-18T17:40:06.651Z,18.93
2023-04-18T17:43:11.781Z,18.77
2023-04-18T17:46:15.603Z,18.81
2023-04-18T17:49:18.425Z,18.68
2023-04-18T17:52:21.688Z,18.53
2023-04-18T17:55:26.165Z,18.44
2023-04-18T17:58:29.315Z,18.40
2023-04-18T18:01:32.908Z,18.34
2023-04-18T18:04:35.652Z,18.17
2023-04-18T18:07:38.540Z,18.12
2023-04-18T18:10:49.789Z,18.06
2023-04-18T18:13:54.678Z,17.87
2023-04-18T18:16:57.341Z,17.66
2023-04-18T18:20:00.122Z,17.62
2023-04-18T18:23:02.831Z,17.66
2023-04-18T18:26:06.665Z,17.61
2023-04-18T18:29:11.203Z,17.54
2023-04-18T18:32:14.127Z,17.58
2023-04-18T18:35:16.797Z,17.58
2023-04-18T18:38:20.464Z,17.58
2023-04-18T18:41:23.397Z,17.51
2023-04-18T18:44:25.945Z,17.41
2023-04-18T18:47:30.575Z,17.30
2023-04-18T18:50:34.387Z,17.38
2023-04-18T18:53:38.372Z,17.42
2023-04-18T18:56:44.269Z,17.44
2023-04-18T18:59:50.110Z,17.43
2023-04-18T19:02:53.588Z,17.45
2023-04-18T19:05:56.676Z,17.34
2023-04-18T19:08:59.969Z,17.35
2023-04-18T19:12:05.085Z,17.30
2023-04-18T19:15:08.473Z,17.24
2023-04-18T19:18:11.941Z,17.28
2023-04-18T19:21:15.978Z,17.25
2023-04-18T19:24:19.402Z,17.26
2023-04-18T19:27:22.203Z,17.02
2023-04-18T19:30:25.446Z,16.75
2023-04-18T19:33:29.338Z,17.02
2023-04-18T19:36:32.926Z,16.84
2023-04-18T19:39:35.488Z,17.13
2023-04-18T19:42:38.960Z,17.14
2023-04-18T19:45:42.552Z,16.96
2023-04-18T19:48:46.041Z,17.20
2023-04-18T19:51:49.073Z,17.21
2023-04-18T19:54:53.305Z,17.21
2023-04-18T19:57:59.455Z,16.99
2023-04-18T20:01:05.855Z,17.06
2023-04-18T20:04:08.823Z,17.03
2023-04-18T20:07:11.516Z,16.79
2023-04-18T20:10:14.060Z,16.78
2023-04-18T20:13:16.622Z,16.48
2023-04-18T20:16:19.184Z,16.51
2023-04-18T20:19:26.877Z,16.60
2023-04-18T20:22:32.380Z,16.58
2023-04-18T20:25:35.949Z,16.56
2023-04-18T20:28:38.574Z,16.56
2023-04-18T20:31:42.459Z,16.50
2023-04-18T20:34:46.736Z,16.54
2023-04-18T20:37:50.512Z,16.71
2023-04-18T20:40:54.212Z,16.65
2023-04-18T20:43:58.737Z,16.57
2023-04-18T20:47:02.374Z,16.40
2023-04-18T20:50:06.185Z,16.49
2023-04-18T20:53:09.601Z,16.26
2023-04-18T20:56:12.143Z,16.15
2023-04-18T20:59:15.632Z,16.25
2023-04-18T21:02:19.195Z,16.27
2023-04-18T21:05:22.021Z,16.28
2023-04-18T21:08:25.575Z,16.32
2023-04-18T21:11:28.345Z,16.22
2023-04-18T21:14:31.438Z,16.08
2023-04-18T21:17:34.130Z,16.02
2023-04-18T21:20:38.608Z,16.00
2023-04-18T21:23:43.338Z,15.86
2023-04-18T21:26:46.638Z,15.69
2023-04-18T21:29:51.049Z,15.64
2023-04-18T21:32:54.722Z,15.77
2023-04-18T21:35:58.047Z,15.73
2023-04-18T21:39:01.748Z,15.70
2023-04-18T21:42:04.418Z,15.75
2023-04-18T21:45:07.713Z,15.77
2023-04-18T21:48:11.516Z,15.66
2023-04-18T21:51:16.666Z,15.66
2023-04-18T21:54:19.311Z,15.58
2023-04-18T21:57:22.661Z,15.53
2023-04-18T22:00:25.274Z,15.48
2023-04-18T22:03:29.502Z,15.36
2023-04-18T22:06:33.621Z,15.55
2023-04-18T22:09:36.392Z,15.59
2023-04-18T22:12:39.557Z,15.51
2023-04-18T22:15:43.138Z,15.58
2023-04-18T22:18:47.099Z,15.54
2023-04-18T22:21:49.753Z,15.50
2023-04-18T22:24:53.162Z,15.36
2023-04-18T22:27:56.674Z,15.33
2023-04-18T22:31:01.072Z,15.41
2023-04-18T22:34:04.863Z,15.41
2023-04-18T22:37:07.395Z,15.38
2023-04-18T22:40:11.738Z,15.31
2023-04-18T22:43:14.286Z,15.42
2023-04-18T22:46:17.776Z,15.39
2023-04-18T22:49:22.295Z,15.31
2023-04-18T22:52:25.760Z,15.26
2023-04-18T22:55:28.377Z,15.27
2023-04-18T22:58:31.655Z,15.22
2023-04-18T23:01:35.300Z,15.25
2023-04-18T23:04:40.114Z,15.27
2023-04-18T23:07:42.796Z,15.21
2023-04-18T23:10:45.742Z,15.25
2023-04-18T23:13:49.248Z,15.24
2023-04-18T23:16:52.776Z,15.21
2023-04-18T23:19:56.148Z,15.14
2023-04-18T23:22:59.661Z,15.06
2023-04-18T23:26:03.452Z,15.14
2023-04-18T23:29:06.733Z,15.15
2023-04-18T23:32:09.305Z,15.02
2023-04-18T23:35:12.075Z,15.01
2023-04-18T23:38:14.688Z,15.01
2023-04-18T23:41:18.225Z,15.08
2023-04-18T23:44:21.904Z,15.05
2023-04-18T23:47:24.552Z,15.17
2023-04-18T23:50:27.297Z,15.24
2023-04-18T23:53:30.916Z,15.13
2023-04-18T23:56:34.369Z,15.14
2023-04-18T23:59:37.484Z,15.16
